sensor_id;sensor_type;location;lat;lon;timestamp;pressure;altitude;pressure_sealevel;temperature;humidity
64066;BME280;50318;54.760;9.408;2023-02-28T00:01:54;102767.06;;;8.59;58.64
64066;BME280;50318;54.760;9.408;2023-02-28T00:04:20;102773.31;;;8.60;58.94
64066;BME280;50318;54.760;9.408;2023-02-28T00:06:46;102767.06;;;8.52;58.98
64066;BME280;50318;54.760;9.408;2023-02-28T00:09:13;102772.94;;;8.58;59.33
64066;BME280;50318;54.760;9.408;2023-02-28T00:11:39;102776.84;;;8.57;59.32
64066;BME280;50318;54.760;9.408;2023-02-28T00:14:05;102780.34;;;8.57;59.25
64066;BME280;50318;54.760;9.408;2023-02-28T00:16:31;102781.88;;;8.51;59.20
64066;BME280;50318;54.760;9.408;2023-02-28T00:18:57;102778.75;;;8.49;59.20
64066;BME280;50318;54.760;9.408;2023-02-28T00:21:27;102791.28;;;8.54;59.46
64066;BME280;50318;54.760;9.408;2023-02-28T00:23:53;102774.47;;;8.52;59.55
64066;BME280;50318;54.760;9.408;2023-02-28T00:26:19;102779.13;;;8.44;59.85
64066;BME280;50318;54.760;9.408;2023-02-28T00:28:45;102767.00;;;8.45;59.63
64066;BME280;50318;54.760;9.408;2023-02-28T00:31:12;102765.84;;;8.46;59.56
64066;BME280;50318;54.760;9.408;2023-02-28T00:33:38;102777.97;;;8.49;59.47
64066;BME280;50318;54.760;9.408;2023-02-28T00:36:08;102764.66;;;8.40;59.83
64066;BME280;50318;54.760;9.408;2023-02-28T00:38:39;102771.69;;;8.48;59.20
64066;BME280;50318;54.760;9.408;2023-02-28T00:41:07;102763.09;;;8.46;59.54
64066;BME280;50318;54.760;9.408;2023-02-28T00:43:34;102767.78;;;8.46;59.94
64066;BME280;50318;54.760;9.408;2023-02-28T00:46:02;102771.69;;;8.48;60.18
64066;BME280;50318;54.760;9.408;2023-02-28T00:48:30;102775.63;;;8.51;60.25
64066;BME280;50318;54.760;9.408;2023-02-28T00:50:59;102780.31;;;8.50;60.14
64066;BME280;50318;54.760;9.408;2023-02-28T00:53:25;102777.59;;;8.54;60.05
64066;BME280;50318;54.760;9.408;2023-02-28T00:55:52;102784.66;;;8.62;59.84
64066;BME280;50318;54.760;9.408;2023-02-28T00:58:18;102787.00;;;8.60;60.04
64066;BME280;50318;54.760;9.408;2023-02-28T01:00:44;102793.25;;;8.64;60.14
64066;BME280;50318;54.760;9.408;2023-02-28T01:03:11;102784.66;;;8.58;60.16
64066;BME280;50318;54.760;9.408;2023-02-28T01:05:37;102785.06;;;8.60;60.52
64066;BME280;50318;54.760;9.408;2023-02-28T01:08:04;102786.22;;;8.59;60.14
64066;BME280;50318;54.760;9.408;2023-02-28T01:10:30;102788.97;;;8.59;60.70
64066;BME280;50318;54.760;9.408;2023-02-28T01:12:57;102779.19;;;8.58;60.43
64066;BME280;50318;54.760;9.408;2023-02-28T01:15:23;102787.38;;;8.58;60.58
64066;BME280;50318;54.760;9.408;2023-02-28T01:17:49;102787.38;;;8.55;60.09
64066;BME280;50318;54.760;9.408;2023-02-28T01:20:16;102781.53;;;8.56;60.76
64066;BME280;50318;54.760;9.408;2023-02-28T01:22:42;102782.28;;;8.53;60.37
64066;BME280;50318;54.760;9.408;2023-02-28T01:25:08;102772.47;;;8.45;60.98
64066;BME280;50318;54.760;9.408;2023-02-28T01:27:35;102775.19;;;8.38;61.46
64066;BME280;50318;54.760;9.408;2023-02-28T01:30:06;102772.47;;;8.42;60.80
64066;BME280;50318;54.760;9.408;2023-02-28T01:32:32;102778.72;;;8.42;61.09
64066;BME280;50318;54.760;9.408;2023-02-28T01:34:58;102774.03;;;8.39;61.10
64066;BME280;50318;54.760;9.408;2023-02-28T01:37:24;102779.06;;;8.34;61.10
64066;BME280;50318;54.760;9.408;2023-02-28T01:39:50;102775.13;;;8.31;61.24
64066;BME280;50318;54.760;9.408;2023-02-28T01:42:18;102780.16;;;8.22;61.57
64066;BME280;50318;54.760;9.408;2023-02-28T01:47:20;102785.59;;;8.18;61.08
64066;BME280;50318;54.760;9.408;2023-02-28T01:49:48;102786.78;;;8.21;61.29
64066;BME280;50318;54.760;9.408;2023-02-28T01:52:15;102793.41;;;8.20;61.73
64066;BME280;50318;54.760;9.408;2023-02-28T01:54:41;102790.28;;;8.18;61.15
64066;BME280;50318;54.760;9.408;2023-02-28T01:57:16;102778.91;;;8.09;61.46
64066;BME280;50318;54.760;9.408;2023-02-28T01:59:48;102774.56;;;8.04;60.88
64066;BME280;50318;54.760;9.408;2023-02-28T02:02:18;102772.22;;;7.99;60.84
64066;BME280;50318;54.760;9.408;2023-02-28T02:04:56;102778.06;;;7.97;61.24
64066;BME280;50318;54.760;9.408;2023-02-28T02:07:25;102779.19;;;7.93;61.63
64066;BME280;50318;54.760;9.408;2023-02-28T02:10:11;102769.78;;;7.83;61.05
64066;BME280;50318;54.760;9.408;2023-02-28T02:15:26;102768.50;;;7.66;60.74
64066;BME280;50318;54.760;9.408;2023-02-28T02:18:01;102773.84;;;7.52;60.91
64066;BME280;50318;54.760;9.408;2023-02-28T02:25:45;102772.34;;;7.14;61.53
64066;BME280;50318;54.760;9.408;2023-02-28T02:28:56;102775.75;;;7.07;61.84
64066;BME280;50318;54.760;9.408;2023-02-28T02:34:27;102766.53;;;6.82;61.91
64066;BME280;50318;54.760;9.408;2023-02-28T02:37:11;102771.56;;;6.76;61.62
64066;BME280;50318;54.760;9.408;2023-02-28T02:45:03;102774.44;;;6.57;61.90
64066;BME280;50318;54.760;9.408;2023-02-28T02:47:33;102761.44;;;6.43;62.36
64066;BME280;50318;54.760;9.408;2023-02-28T02:50:04;102771.56;;;6.43;62.42
64066;BME280;50318;54.760;9.408;2023-02-28T02:52:40;102770.63;;;6.32;61.94
64066;BME280;50318;54.760;9.408;2023-02-28T02:55:10;102776.72;;;6.22;62.29
64066;BME280;50318;54.760;9.408;2023-02-28T03:00:16;102780.41;;;6.06;62.61
64066;BME280;50318;54.760;9.408;2023-02-28T03:02:44;102783.81;;;6.00;62.68
64066;BME280;50318;54.760;9.408;2023-02-28T03:05:19;102779.44;;;5.92;63.30
64066;BME280;50318;54.760;9.408;2023-02-28T03:07:47;102782.03;;;5.88;63.04
64066;BME280;50318;54.760;9.408;2023-02-28T03:10:36;102783.09;;;5.80;62.68
64066;BME280;50318;54.760;9.408;2023-02-28T03:22:19;102781.41;;;5.45;63.85
64066;BME280;50318;54.760;9.408;2023-02-28T03:25:30;102786.84;;;5.45;63.99
64066;BME280;50318;54.760;9.408;2023-02-28T03:32:06;102783.97;;;5.38;63.86
64066;BME280;50318;54.760;9.408;2023-02-28T03:35:03;102790.16;;;5.35;64.39
64066;BME280;50318;54.760;9.408;2023-02-28T03:37:35;102784.66;;;5.32;64.29
64066;BME280;50318;54.760;9.408;2023-02-28T03:40:15;102780.38;;;5.31;63.57
64066;BME280;50318;54.760;9.408;2023-02-28T03:42:46;102785.75;;;5.27;63.80
64066;BME280;50318;54.760;9.408;2023-02-28T03:45:18;102789.63;;;5.26;64.09
64066;BME280;50318;54.760;9.408;2023-02-28T03:48:08;102790.72;;;5.21;63.96
64066;BME280;50318;54.760;9.408;2023-02-28T03:50:43;102786.41;;;5.20;63.51
64066;BME280;50318;54.760;9.408;2023-02-28T03:53:22;102789.06;;;5.17;63.59
64066;BME280;50318;54.760;9.408;2023-02-28T03:56:02;102788.19;;;5.13;63.68
64066;BME280;50318;54.760;9.408;2023-02-28T03:58:37;102786.94;;;5.07;63.94
64066;BME280;50318;54.760;9.408;2023-02-28T04:01:12;102781.38;;;5.00;63.74
64066;BME280;50318;54.760;9.408;2023-02-28T04:03:51;102789.53;;;5.00;63.84
64066;BME280;50318;54.760;9.408;2023-02-28T04:06:20;102775.78;;;4.92;64.27
64066;BME280;50318;54.760;9.408;2023-02-28T04:08:47;102780.44;;;4.92;64.19
64066;BME280;50318;54.760;9.408;2023-02-28T04:11:35;102783.94;;;4.92;64.30
64066;BME280;50318;54.760;9.408;2023-02-28T04:14:03;102778.44;;;4.89;64.46
64066;BME280;50318;54.760;9.408;2023-02-28T04:16:30;102776.06;;;4.87;64.62
64066;BME280;50318;54.760;9.408;2023-02-28T04:18:57;102779.94;;;4.86;64.39
64066;BME280;50318;54.760;9.408;2023-02-28T04:21:23;102776.00;;;4.84;63.98
64066;BME280;50318;54.760;9.408;2023-02-28T04:23:49;102777.88;;;4.80;63.95
64066;BME280;50318;54.760;9.408;2023-02-28T04:26:16;102775.88;;;4.77;63.86
64066;BME280;50318;54.760;9.408;2023-02-28T04:28:42;102774.16;;;4.69;63.84
64066;BME280;50318;54.760;9.408;2023-02-28T04:31:08;102765.88;;;4.61;64.12
64066;BME280;50318;54.760;9.408;2023-02-28T04:33:34;102787.31;;;4.67;64.19
64066;BME280;50318;54.760;9.408;2023-02-28T04:36:03;102787.69;;;4.65;64.02
64066;BME280;50318;54.760;9.408;2023-02-28T04:38:32;102782.97;;;4.62;63.95
64066;BME280;50318;54.760;9.408;2023-02-28T04:40:59;102784.09;;;4.61;63.92
64066;BME280;50318;54.760;9.408;2023-02-28T04:43:29;102786.34;;;4.55;64.09
64066;BME280;50318;54.760;9.408;2023-02-28T04:45:58;102796.00;;;4.53;64.29
64066;BME280;50318;54.760;9.408;2023-02-28T04:48:25;102794.00;;;4.50;64.73
64066;BME280;50318;54.760;9.408;2023-02-28T04:50:53;102783.81;;;4.47;64.42
64066;BME280;50318;54.760;9.408;2023-02-28T04:53:19;102791.59;;;4.48;65.06
64066;BME280;50318;54.760;9.408;2023-02-28T04:55:45;102785.38;;;4.48;64.83
64066;BME280;50318;54.760;9.408;2023-02-28T04:58:13;102788.56;;;4.50;64.59
64066;BME280;50318;54.760;9.408;2023-02-28T05:00:39;102790.03;;;4.47;64.64
64066;BME280;50318;54.760;9.408;2023-02-28T05:03:05;102791.59;;;4.48;65.12
64066;BME280;50318;54.760;9.408;2023-02-28T05:05:31;102788.09;;;4.48;64.84
64066;BME280;50318;54.760;9.408;2023-02-28T05:07:58;102781.81;;;4.44;64.89
64066;BME280;50318;54.760;9.408;2023-02-28T05:10:24;102771.22;;;4.39;64.95
64066;BME280;50318;54.760;9.408;2023-02-28T05:12:50;102778.72;;;4.45;64.48
64066;BME280;50318;54.760;9.408;2023-02-28T05:15:17;102793.09;;;4.46;64.44
64066;BME280;50318;54.760;9.408;2023-02-28T05:17:43;102787.97;;;4.41;64.45
64066;BME280;50318;54.760;9.408;2023-02-28T05:20:10;102787.53;;;4.39;64.66
64066;BME280;50318;54.760;9.408;2023-02-28T05:22:37;102789.47;;;4.38;65.11
64066;BME280;50318;54.760;9.408;2023-02-28T05:25:04;102790.19;;;4.35;65.10
64066;BME280;50318;54.760;9.408;2023-02-28T05:27:30;102798.31;;;4.35;64.80
64066;BME280;50318;54.760;9.408;2023-02-28T05:29:57;102789.38;;;4.35;65.25
64066;BME280;50318;54.760;9.408;2023-02-28T05:32:23;102785.88;;;4.34;64.68
64066;BME280;50318;54.760;9.408;2023-02-28T05:34:49;102788.78;;;4.25;65.10
64066;BME280;50318;54.760;9.408;2023-02-28T05:37:15;102793.53;;;4.28;64.63
64066;BME280;50318;54.760;9.408;2023-02-28T05:39:42;102793.91;;;4.27;64.81
64066;BME280;50318;54.760;9.408;2023-02-28T05:42:08;102790.28;;;4.23;65.27
64066;BME280;50318;54.760;9.408;2023-02-28T05:44:35;102792.94;;;4.19;65.25
64066;BME280;50318;54.760;9.408;2023-02-28T05:47:02;102792.22;;;4.22;65.30
64066;BME280;50318;54.760;9.408;2023-02-28T05:49:28;102799.22;;;4.23;64.85
64066;BME280;50318;54.760;9.408;2023-02-28T05:51:54;102787.50;;;4.19;64.95
64066;BME280;50318;54.760;9.408;2023-02-28T05:54:21;102794.16;;;4.22;64.93
64066;BME280;50318;54.760;9.408;2023-02-28T05:56:47;102791.78;;;4.20;65.00
64066;BME280;50318;54.760;9.408;2023-02-28T05:59:13;102794.06;;;4.18;64.82
64066;BME280;50318;54.760;9.408;2023-02-28T06:01:40;102799.06;;;4.16;64.92
64066;BME280;50318;54.760;9.408;2023-02-28T06:04:09;102793.66;;;4.16;64.96
64066;BME280;50318;54.760;9.408;2023-02-28T06:06:36;102795.56;;;4.16;64.71
64066;BME280;50318;54.760;9.408;2023-02-28T06:09:04;102799.06;;;4.16;65.09
64066;BME280;50318;54.760;9.408;2023-02-28T06:11:30;102796.38;;;4.16;64.64
64066;BME280;50318;54.760;9.408;2023-02-28T06:13:58;102804.88;;;4.15;64.62
64066;BME280;50318;54.760;9.408;2023-02-28T06:16:26;102796.63;;;4.11;65.02
64066;BME280;50318;54.760;9.408;2023-02-28T06:18:52;102801.56;;;4.06;64.23
64066;BME280;50318;54.760;9.408;2023-02-28T06:21:18;102789.81;;;4.01;64.34
64066;BME280;50318;54.760;9.408;2023-02-28T06:23:45;102796.03;;;4.02;64.38
64066;BME280;50318;54.760;9.408;2023-02-28T06:26:11;102802.88;;;3.96;64.46
64066;BME280;50318;54.760;9.408;2023-02-28T06:28:37;102809.59;;;4.02;64.55
64066;BME280;50318;54.760;9.408;2023-02-28T06:31:12;102815.03;;;4.02;64.15
64066;BME280;50318;54.760;9.408;2023-02-28T06:33:39;102815.41;;;4.00;64.73
64066;BME280;50318;54.760;9.408;2023-02-28T06:36:07;102812.59;;;3.97;65.27
64066;BME280;50318;54.760;9.408;2023-02-28T06:38:33;102819.34;;;4.03;65.49
64066;BME280;50318;54.760;9.408;2023-02-28T06:41:00;102826.88;;;4.10;65.58
64066;BME280;50318;54.760;9.408;2023-02-28T06:43:29;102832.81;;;4.15;66.10
64066;BME280;50318;54.760;9.408;2023-02-28T06:45:59;102836.41;;;4.19;66.07
64066;BME280;50318;54.760;9.408;2023-02-28T06:48:27;102798.50;;;4.07;65.63
64066;BME280;50318;54.760;9.408;2023-02-28T06:51:04;102819.13;;;4.27;65.32
64066;BME280;50318;54.760;9.408;2023-02-28T06:53:31;102827.00;;;4.32;65.40
64066;BME280;50318;54.760;9.408;2023-02-28T06:55:58;102828.66;;;4.37;65.53
64066;BME280;50318;54.760;9.408;2023-02-28T06:58:24;102823.28;;;4.41;65.72
64066;BME280;50318;54.760;9.408;2023-02-28T07:00:52;102823.00;;;4.46;65.36
64066;BME280;50318;54.760;9.408;2023-02-28T07:03:19;102825.78;;;4.49;65.24
64066;BME280;50318;54.760;9.408;2023-02-28T07:05:45;102828.19;;;4.51;65.18
64066;BME280;50318;54.760;9.408;2023-02-28T07:08:11;102831.03;;;4.58;65.50
64066;BME280;50318;54.760;9.408;2023-02-28T07:10:38;102824.97;;;4.65;65.41
64066;BME280;50318;54.760;9.408;2023-02-28T07:13:05;102830.63;;;4.75;65.75
64066;BME280;50318;54.760;9.408;2023-02-28T07:15:32;102836.63;;;4.84;65.37
64066;BME280;50318;54.760;9.408;2023-02-28T07:18:01;102831.03;;;4.97;65.68
64066;BME280;50318;54.760;9.408;2023-02-28T07:20:27;102834.63;;;5.01;65.50
64066;BME280;50318;54.760;9.408;2023-02-28T07:22:54;102845.03;;;5.18;65.75
64066;BME280;50318;54.760;9.408;2023-02-28T07:25:23;102844.28;;;5.40;65.71
64066;BME280;50318;54.760;9.408;2023-02-28T07:27:50;102838.38;;;5.58;65.41
64066;BME280;50318;54.760;9.408;2023-02-28T07:30:17;102836.75;;;5.76;65.36
64066;BME280;50318;54.760;9.408;2023-02-28T07:32:43;102844.44;;;5.93;64.54
64066;BME280;50318;54.760;9.408;2023-02-28T07:35:10;102846.13;;;6.01;64.58
64066;BME280;50318;54.760;9.408;2023-02-28T07:37:36;102857.91;;;6.09;64.72
64066;BME280;50318;54.760;9.408;2023-02-28T07:40:10;102851.34;;;6.13;64.67
64066;BME280;50318;54.760;9.408;2023-02-28T07:42:37;102842.09;;;6.18;64.43
64066;BME280;50318;54.760;9.408;2023-02-28T07:45:05;102855.41;;;6.23;64.68
64066;BME280;50318;54.760;9.408;2023-02-28T07:47:31;102850.41;;;6.29;64.33
64066;BME280;50318;54.760;9.408;2023-02-28T07:49:58;102840.28;;;6.29;64.17
64066;BME280;50318;54.760;9.408;2023-02-28T07:52:24;102855.25;;;6.39;64.67
64066;BME280;50318;54.760;9.408;2023-02-28T07:54:51;102847.91;;;6.43;64.86
64066;BME280;50318;54.760;9.408;2023-02-28T07:57:17;102852.69;;;6.53;64.92
64066;BME280;50318;54.760;9.408;2023-02-28T07:59:44;102846.63;;;6.63;65.47
64066;BME280;50318;54.760;9.408;2023-02-28T08:02:17;102857.69;;;6.77;65.14
64066;BME280;50318;54.760;9.408;2023-02-28T08:04:44;102862.16;;;6.93;65.68
64066;BME280;50318;54.760;9.408;2023-02-28T08:07:14;102863.47;;;7.06;65.96
64066;BME280;50318;54.760;9.408;2023-02-28T08:09:40;102864.41;;;7.17;65.67
64066;BME280;50318;54.760;9.408;2023-02-28T08:12:08;102863.03;;;7.34;65.92
64066;BME280;50318;54.760;9.408;2023-02-28T08:14:34;102859.25;;;7.49;66.08
64066;BME280;50318;54.760;9.408;2023-02-28T08:17:01;102853.91;;;7.60;65.30
64066;BME280;50318;54.760;9.408;2023-02-28T08:19:27;102855.56;;;7.72;65.27
64066;BME280;50318;54.760;9.408;2023-02-28T08:21:54;102858.78;;;7.84;65.71
64066;BME280;50318;54.760;9.408;2023-02-28T08:24:20;102858.47;;;7.93;65.49
64066;BME280;50318;54.760;9.408;2023-02-28T08:26:47;102857.34;;;8.01;65.34
64066;BME280;50318;54.760;9.408;2023-02-28T08:29:13;102869.94;;;8.13;65.36
64066;BME280;50318;54.760;9.408;2023-02-28T08:31:39;102862.56;;;8.24;65.17
64066;BME280;50318;54.760;9.408;2023-02-28T08:34:08;102861.91;;;8.34;65.57
64066;BME280;50318;54.760;9.408;2023-02-28T08:36:34;102870.97;;;8.49;65.31
64066;BME280;50318;54.760;9.408;2023-02-28T08:39:01;102865.53;;;8.52;65.24
64066;BME280;50318;54.760;9.408;2023-02-28T08:41:27;102862.44;;;8.65;65.21
64066;BME280;50318;54.760;9.408;2023-02-28T08:43:54;102866.78;;;8.73;64.81
64066;BME280;50318;54.760;9.408;2023-02-28T08:46:20;102870.75;;;8.89;64.69
64066;BME280;50318;54.760;9.408;2023-02-28T08:48:46;102859.44;;;8.98;64.20
64066;BME280;50318;54.760;9.408;2023-02-28T08:51:15;102874.38;;;9.15;64.02
64066;BME280;50318;54.760;9.408;2023-02-28T08:53:42;102871.28;;;9.23;63.49
64066;BME280;50318;54.760;9.408;2023-02-28T08:56:11;102876.75;;;9.27;63.29
64066;BME280;50318;54.760;9.408;2023-02-28T08:58:38;102880.28;;;9.35;62.93
64066;BME280;50318;54.760;9.408;2023-02-28T09:01:09;102870.91;;;9.39;62.80
64066;BME280;50318;54.760;9.408;2023-02-28T09:03:36;102868.97;;;9.47;62.64
64066;BME280;50318;54.760;9.408;2023-02-28T09:06:02;102868.97;;;9.54;61.97
64066;BME280;50318;54.760;9.408;2023-02-28T09:08:30;102857.25;;;9.53;61.79
64066;BME280;50318;54.760;9.408;2023-02-28T09:10:57;102874.47;;;9.72;61.30
64066;BME280;50318;54.760;9.408;2023-02-28T09:13:25;102881.53;;;9.80;60.88
64066;BME280;50318;54.760;9.408;2023-02-28T09:15:52;102885.03;;;9.80;60.76
64066;BME280;50318;54.760;9.408;2023-02-28T09:18:19;102883.47;;;9.79;61.12
64066;BME280;50318;54.760;9.408;2023-02-28T09:20:45;102883.88;;;9.78;61.06
64066;BME280;50318;54.760;9.408;2023-02-28T09:23:12;102880.75;;;9.83;60.76
64066;BME280;50318;54.760;9.408;2023-02-28T09:25:54;102885.44;;;9.86;60.69
64066;BME280;50318;54.760;9.408;2023-02-28T09:28:21;102885.03;;;9.91;60.47
64066;BME280;50318;54.760;9.408;2023-02-28T09:30:51;102887.38;;;9.93;59.91
64066;BME280;50318;54.760;9.408;2023-02-28T09:33:21;102892.09;;;9.96;59.71
64066;BME280;50318;54.760;9.408;2023-02-28T09:35:48;102890.13;;;10.03;59.43
64066;BME280;50318;54.760;9.408;2023-02-28T09:38:16;102884.66;;;10.07;59.73
64066;BME280;50318;54.760;9.408;2023-02-28T09:40:51;102887.00;;;10.08;59.50
64066;BME280;50318;54.760;9.408;2023-02-28T09:43:22;102888.56;;;10.13;59.57
64066;BME280;50318;54.760;9.408;2023-02-28T09:45:54;102893.66;;;10.18;58.96
64066;BME280;50318;54.760;9.408;2023-02-28T09:48:23;102892.50;;;10.23;59.30
64066;BME280;50318;54.760;9.408;2023-02-28T09:50:52;102890.16;;;10.21;59.39
64066;BME280;50318;54.760;9.408;2023-02-28T09:53:32;102887.00;;;10.30;58.87
64066;BME280;50318;54.760;9.408;2023-02-28T09:56:24;102890.16;;;10.21;58.96
64066;BME280;50318;54.760;9.408;2023-02-28T10:01:59;102897.16;;;10.36;59.41
64066;BME280;50318;54.760;9.408;2023-02-28T10:04:52;102893.63;;;10.47;59.13
64066;BME280;50318;54.760;9.408;2023-02-28T10:12:56;102902.59;;;10.61;59.07
64066;BME280;50318;54.760;9.408;2023-02-28T10:15:26;102900.25;;;10.67;58.92
64066;BME280;50318;54.760;9.408;2023-02-28T10:17:58;102876.72;;;10.59;58.64
64066;BME280;50318;54.760;9.408;2023-02-28T10:20:25;102893.94;;;10.73;58.56
64066;BME280;50318;54.760;9.408;2023-02-28T10:23:11;102894.28;;;10.86;58.29
64066;BME280;50318;54.760;9.408;2023-02-28T10:25:38;102895.88;;;10.80;57.75
64066;BME280;50318;54.760;9.408;2023-02-28T10:30:36;102895.84;;;10.94;57.34
64066;BME280;50318;54.760;9.408;2023-02-28T10:33:03;102880.94;;;10.88;57.46
64066;BME280;50318;54.760;9.408;2023-02-28T10:35:30;102894.19;;;11.07;57.24
64066;BME280;50318;54.760;9.408;2023-02-28T10:37:58;102898.09;;;11.17;57.06
64066;BME280;50318;54.760;9.408;2023-02-28T10:40:34;102885.88;;;11.22;56.41
64066;BME280;50318;54.760;9.408;2023-02-28T10:45:33;102874.06;;;11.28;56.07
64066;BME280;50318;54.760;9.408;2023-02-28T10:48:03;102879.94;;;11.30;56.01
64066;BME280;50318;54.760;9.408;2023-02-28T11:03:51;102884.91;;;11.50;55.51
64066;BME280;50318;54.760;9.408;2023-02-28T11:06:27;102877.88;;;11.45;55.51
64066;BME280;50318;54.760;9.408;2023-02-28T11:08:57;102874.78;;;11.43;55.99
64066;BME280;50318;54.760;9.408;2023-02-28T11:11:27;102874.75;;;11.47;55.77
64066;BME280;50318;54.760;9.408;2023-02-28T11:14:04;102873.16;;;11.49;55.60
64066;BME280;50318;54.760;9.408;2023-02-28T11:16:33;102876.31;;;11.44;55.32
64066;BME280;50318;54.760;9.408;2023-02-28T11:19:01;102848.91;;;11.37;55.33
64066;BME280;50318;54.760;9.408;2023-02-28T11:21:34;102858.28;;;11.43;55.10
64066;BME280;50318;54.760;9.408;2023-02-28T11:24:15;102863.06;;;11.32;55.31
64066;BME280;50318;54.760;9.408;2023-02-28T11:26:47;102863.03;;;11.39;55.47
64066;BME280;50318;54.760;9.408;2023-02-28T11:29:31;102857.50;;;11.43;55.20
64066;BME280;50318;54.760;9.408;2023-02-28T11:34:34;102854.78;;;11.39;54.90
64066;BME280;50318;54.760;9.408;2023-02-28T11:37:01;102858.22;;;11.50;54.64
64066;BME280;50318;54.760;9.408;2023-02-28T11:39:28;102842.91;;;11.49;54.85
64066;BME280;50318;54.760;9.408;2023-02-28T11:42:31;102851.88;;;11.60;55.02
64066;BME280;50318;54.760;9.408;2023-02-28T11:53:17;102835.31;;;11.67;55.09
64066;BME280;50318;54.760;9.408;2023-02-28T11:55:49;102832.88;;;11.77;55.23
64066;BME280;50318;54.760;9.408;2023-02-28T11:58:26;102837.50;;;11.90;54.97
64066;BME280;50318;54.760;9.408;2023-02-28T12:06:38;102819.19;;;12.14;54.96
64066;BME280;50318;54.760;9.408;2023-02-28T12:09:31;102815.22;;;12.19;55.14
64066;BME280;50318;54.760;9.408;2023-02-28T12:14:50;102811.91;;;12.35;54.09
64066;BME280;50318;54.760;9.408;2023-02-28T12:17:59;102820.53;;;12.37;54.81
64066;BME280;50318;54.760;9.408;2023-02-28T12:20:57;102807.03;;;12.46;54.22
64066;BME280;50318;54.760;9.408;2023-02-28T12:23:55;102797.94;;;12.49;53.70
64066;BME280;50318;54.760;9.408;2023-02-28T12:31:50;102784.56;;;12.51;53.25
64066;BME280;50318;54.760;9.408;2023-02-28T12:34:22;102786.88;;;12.56;52.68
64066;BME280;50318;54.760;9.408;2023-02-28T12:36:53;102773.94;;;12.49;53.38
64066;BME280;50318;54.760;9.408;2023-02-28T12:39:47;102782.91;;;12.57;53.15
64066;BME280;50318;54.760;9.408;2023-02-28T12:42:24;102778.59;;;12.56;52.97
64066;BME280;50318;54.760;9.408;2023-02-28T12:45:18;102770.75;;;12.54;52.67
64066;BME280;50318;54.760;9.408;2023-02-28T12:47:50;102780.13;;;12.60;52.94
64066;BME280;50318;54.760;9.408;2023-02-28T12:50:19;102768.69;;;12.62;52.87
64066;BME280;50318;54.760;9.408;2023-02-28T13:06:57;102786.94;;;12.79;53.23
64066;BME280;50318;54.760;9.408;2023-02-28T13:09:26;102781.34;;;12.86;53.28
64066;BME280;50318;54.760;9.408;2023-02-28T13:11:55;102761.28;;;12.86;52.93
64066;BME280;50318;54.760;9.408;2023-02-28T13:19:37;102763.00;;;12.46;53.09
64066;BME280;50318;54.760;9.408;2023-02-28T13:22:16;102772.06;;;12.43;53.21
64066;BME280;50318;54.760;9.408;2023-02-28T13:24:45;102776.06;;;12.38;53.50
64066;BME280;50318;54.760;9.408;2023-02-28T13:29:43;102777.38;;;12.26;54.14
64066;BME280;50318;54.760;9.408;2023-02-28T13:40:27;102783.28;;;12.25;54.39
64066;BME280;50318;54.760;9.408;2023-02-28T13:42:53;102785.22;;;12.28;54.40
64066;BME280;50318;54.760;9.408;2023-02-28T13:45:26;102765.59;;;12.26;54.58
64066;BME280;50318;54.760;9.408;2023-02-28T13:48:14;102781.94;;;12.40;54.74
64066;BME280;50318;54.760;9.408;2023-02-28T13:50:43;102770.88;;;12.44;54.54
64066;BME280;50318;54.760;9.408;2023-02-28T13:56:06;102778.50;;;12.63;54.42
64066;BME280;50318;54.760;9.408;2023-02-28T14:07:09;102763.50;;;12.68;53.34
64066;BME280;50318;54.760;9.408;2023-02-28T14:09:44;102762.00;;;12.63;53.78
64066;BME280;50318;54.760;9.408;2023-02-28T14:15:46;102750.53;;;12.38;53.57
64066;BME280;50318;54.760;9.408;2023-02-28T14:20:49;102748.53;;;12.08;53.84
64066;BME280;50318;54.760;9.408;2023-02-28T14:37:29;102741.50;;;11.62;55.53
64066;BME280;50318;54.760;9.408;2023-02-28T14:40:03;102737.16;;;11.64;55.61
64066;BME280;50318;54.760;9.408;2023-02-28T14:42:37;102734.34;;;11.72;55.80
64066;BME280;50318;54.760;9.408;2023-02-28T14:45:22;102729.63;;;11.72;55.79
64066;BME280;50318;54.760;9.408;2023-02-28T14:47:51;102741.25;;;11.90;55.59
64066;BME280;50318;54.760;9.408;2023-02-28T14:50:23;102739.22;;;11.94;55.95
64066;BME280;50318;54.760;9.408;2023-02-28T14:52:54;102739.56;;;12.00;55.46
64066;BME280;50318;54.760;9.408;2023-02-28T14:55:28;102730.63;;;11.92;55.56
64066;BME280;50318;54.760;9.408;2023-02-28T14:58:00;102736.75;;;12.04;55.22
64066;BME280;50318;54.760;9.408;2023-02-28T15:00:33;102734.78;;;12.08;55.57
64066;BME280;50318;54.760;9.408;2023-02-28T15:03:01;102724.25;;;11.99;55.37
64066;BME280;50318;54.760;9.408;2023-02-28T15:05:34;102719.88;;;12.02;55.43
64066;BME280;50318;54.760;9.408;2023-02-28T15:08:18;102725.75;;;12.07;55.54
64066;BME280;50318;54.760;9.408;2023-02-28T15:10:54;102717.44;;;12.11;55.41
64066;BME280;50318;54.760;9.408;2023-02-28T15:13:22;102721.44;;;12.03;55.80
64066;BME280;50318;54.760;9.408;2023-02-28T15:15:58;102726.59;;;12.01;55.61
64066;BME280;50318;54.760;9.408;2023-02-28T15:18:48;102728.50;;;12.07;55.51
64066;BME280;50318;54.760;9.408;2023-02-28T15:21:32;102722.28;;;11.99;55.38
64066;BME280;50318;54.760;9.408;2023-02-28T15:24:07;102718.84;;;11.92;55.37
64066;BME280;50318;54.760;9.408;2023-02-28T15:26:42;102731.91;;;11.81;55.81
64066;BME280;50318;54.760;9.408;2023-02-28T15:29:22;102715.88;;;11.72;55.96
64066;BME280;50318;54.760;9.408;2023-02-28T15:31:55;102723.28;;;11.79;55.99
64066;BME280;50318;54.760;9.408;2023-02-28T15:36:52;102725.69;;;11.73;56.02
64066;BME280;50318;54.760;9.408;2023-02-28T15:39:24;102712.00;;;11.66;55.85
64066;BME280;50318;54.760;9.408;2023-02-28T15:41:51;102708.47;;;11.65;55.80
64066;BME280;50318;54.760;9.408;2023-02-28T15:44:24;102719.09;;;11.63;56.29
64066;BME280;50318;54.760;9.408;2023-02-28T15:46:57;102713.59;;;11.63;56.22